Time;durP1;ratioP1;P1;durP2;ratioP2;P2;SDS_P1;SDS_P2;PMS_P1;PMS_P2;Temp;Humidity;BMP_temperature;BMP_pressure;BME280_temperature;BME280_humidity;BME280_pressure;Samples;Min_cycle;Max_cycle;Signal;HPM_P1;HPM_P2
2022/04/06 00:00:45;;;;;;;0.00;0.00;;;;;;;10.33;62.79;98610.16;6278196;22;20010;-81
2022/04/06 00:03:11;;;;;;;0.00;0.00;;;;;;;10.35;62.22;98606.13;6277505;22;20015;-82
2022/04/06 00:05:36;;;;;;;0.00;0.00;;;;;;;10.36;62.60;98604.22;6278102;22;20007;-81
2022/04/06 00:08:02;;;;;;;0.00;0.00;;;;;;;10.27;63.36;98606.75;6277796;22;20008;-78
2022/04/06 00:10:29;;;;;;;0.00;0.00;;;;;;;10.21;62.77;98605.22;6278244;22;20061;-82
2022/04/06 00:12:55;;;;;;;0.00;0.00;;;;;;;10.21;63.03;98602.53;6305373;22;20011;-85
2022/04/06 00:15:21;;;;;;;0.00;0.00;;;;;;;10.15;63.05;98603.66;6277903;22;20428;-87
2022/04/06 00:20:52;;;;;;;0.00;0.00;;;;;;;10.05;63.72;98605.34;6305534;22;20014;-90
2022/04/06 00:23:18;;;;;;;0.57;0.28;;;;;;;9.99;64.48;98605.72;6252110;22;20456;-87
2022/04/06 00:25:43;;;;;;;0.00;0.00;;;;;;;9.99;63.69;98611.84;6277665;22;20348;-86
2022/04/06 00:28:09;;;;;;;0.00;0.00;;;;;;;9.97;63.91;98608.63;6277325;22;20003;-84
2022/04/06 00:30:34;;;;;;;0.00;0.00;;;;;;;9.91;64.13;98604.44;6278078;22;20038;-86
2022/04/06 00:33:00;;;;;;;0.00;0.00;;;;;;;9.90;63.90;98611.66;6276809;22;20419;-80
2022/04/06 00:35:29;;;;;;;0.00;0.00;;;;;;;9.89;64.17;98610.06;6276952;22;20080;-79
2022/04/06 00:38:04;;;;;;;0.00;0.00;;;;;;;9.86;63.74;98599.97;6277168;22;20090;-80
2022/04/06 00:40:32;;;;;;;0.00;0.00;;;;;;;9.90;63.68;98610.88;6278064;22;20395;-88
2022/04/06 00:42:58;;;;;;;0.00;0.00;;;;;;;9.86;64.15;98604.47;6277260;22;20079;-87
2022/04/06 00:45:24;;;;;;;0.00;0.00;;;;;;;9.88;64.24;98599.66;6277863;22;20097;-83
2022/04/06 00:47:51;;;;;;;0.00;0.00;;;;;;;9.88;63.65;98605.78;6277997;22;20003;-84
2022/04/06 00:50:17;;;;;;;0.00;0.00;;;;;;;9.93;64.07;98612.97;6277323;22;20034;-82
2022/04/06 00:52:43;;;;;;;0.00;0.00;;;;;;;9.89;63.79;98606.59;6277937;22;20011;-82
2022/04/06 00:55:10;;;;;;;0.00;0.00;;;;;;;9.86;63.54;98605.28;6277246;22;20391;-82
2022/04/06 00:57:35;;;;;;;0.00;0.00;;;;;;;9.82;63.51;98609.59;6277347;22;20007;-86
2022/04/06 01:00:03;;;;;;;0.00;0.00;;;;;;;9.78;63.72;98612.03;6277281;22;20056;-84
2022/04/06 01:02:28;;;;;;;0.00;0.00;;;;;;;9.77;63.29;98615.78;6277136;22;20000;-85
2022/04/06 01:04:55;;;;;;;0.00;0.00;;;;;;;9.73;63.37;98611.28;6277873;22;20015;-85
2022/04/06 01:07:22;;;;;;;0.00;0.00;;;;;;;9.69;63.11;98611.06;6277185;22;20064;-81
2022/04/06 01:09:48;;;;;;;0.00;0.00;;;;;;;9.66;63.04;98614.28;6277436;22;20452;-80
2022/04/06 01:12:14;;;;;;;0.00;0.00;;;;;;;9.65;62.78;98619.91;6276692;22;20029;-82
2022/04/06 01:14:40;;;;;;;0.00;0.00;;;;;;;9.61;62.11;98623.13;6276317;22;20017;-84
2022/04/06 01:17:08;;;;;;;0.00;0.00;;;;;;;9.55;62.21;98624.25;6277077;22;19999;-87
2022/04/06 01:19:38;;;;;;;;;;;;;;;9.53;62.00;98630.94;6278108;22;20090;-86
2022/04/06 01:22:43;;;;;;;0.00;0.00;;;;;;;9.45;61.82;98629.66;6251339;22;19914;-84
2022/04/06 01:25:11;;;;;;;0.00;0.00;;;;;;;9.38;61.52;98629.97;6295063;22;20006;-82
2022/04/06 01:34:05;;;;;;;0.00;0.00;;;;;;;9.16;61.59;98625.06;6281052;22;20064;-81
2022/04/06 01:36:30;;;;;;;0.00;0.00;;;;;;;9.08;61.67;98630.97;6251637;22;20010;-81
2022/04/06 01:38:57;;;;;;;0.00;0.00;;;;;;;9.02;61.71;98635.56;6276754;22;20003;-81
2022/04/06 01:41:22;;;;;;;0.00;0.00;;;;;;;8.95;61.51;98630.50;6251235;22;20015;-81
2022/04/06 01:43:48;;;;;;;0.00;0.00;;;;;;;8.91;61.97;98634.81;6277335;22;20007;-80
2022/04/06 01:46:13;;;;;;;0.00;0.00;;;;;;;8.87;61.53;98635.63;6277089;22;20086;-80
2022/04/06 01:52:12;;;;;;;0.00;0.00;;;;;;;8.84;61.34;98633.50;6277412;22;20140;-80
2022/04/06 01:54:08;;;;;;;0.00;0.00;;;;;;;8.64;61.95;98630.66;6304322;22;20014;-80
2022/04/06 01:56:33;;;;;;;0.00;0.00;;;;;;;8.64;61.71;98632.50;6277503;22;19995;-80
2022/04/06 01:58:59;;;;;;;0.00;0.00;;;;;;;8.64;62.08;98635.19;6277729;22;20010;-80
2022/04/06 02:01:25;;;;;;;0.00;0.00;;;;;;;8.59;61.82;98645.88;6277385;22;20049;-80
2022/04/06 02:03:51;;;;;;;0.00;0.00;;;;;;;8.56;62.06;98649.09;6277327;22;20348;-80
2022/04/06 02:06:55;;;;;;;0.00;0.00;;;;;;;8.54;61.68;98648.56;6277318;22;20348;-83
2022/04/06 02:12:54;;;;;;;0.00;0.00;;;;;;;8.48;61.71;98653.91;6306979;22;20360;-81
2022/04/06 02:15:56;;;;;;;0.00;0.00;;;;;;;8.37;61.78;98646.97;6304360;22;20394;-81
2022/04/06 02:18:31;;;;;;;0.00;0.00;;;;;;;8.34;61.61;98642.19;6304604;22;20007;-81
2022/04/06 02:20:57;;;;;;;0.00;0.00;;;;;;;8.26;61.97;98648.06;6278794;22;19995;-80
2022/04/06 02:23:22;;;;;;;0.00;0.00;;;;;;;8.18;62.00;98647.56;6277005;22;20038;-80
2022/04/06 02:25:48;;;;;;;0.00;0.00;;;;;;;8.15;61.99;98649.97;6277756;22;20400;-80
2022/04/06 02:28:13;;;;;;;0.15;0.15;;;;;;;8.09;62.06;98646.53;6278771;22;20007;-81
2022/04/06 02:34:45;;;;;;;0.10;0.10;;;;;;;8.02;61.87;98657.44;6309913;22;20034;-83
2022/04/06 02:43:56;;;;;;;0.00;0.00;;;;;;;7.71;62.42;98666.50;6309105;22;20072;-79
2022/04/06 02:46:22;;;;;;;0.00;0.00;;;;;;;7.64;62.24;98664.91;6279261;22;20003;-79
2022/04/06 02:48:47;;;;;;;0.00;0.00;;;;;;;7.60;62.39;98665.72;6281594;22;20333;-80
2022/04/06 02:51:13;;;;;;;0.00;0.00;;;;;;;7.53;61.79;98674.75;6278973;22;20082;-77
2022/04/06 03:51:24;;;;;;;0.00;0.00;;;;;;;6.58;63.88;98702.38;6317858;22;20165;-80
2022/04/06 03:58:15;;;;;;;0.00;0.00;;;;;;;6.63;63.66;98712.22;6197404;22;20031;-80
2022/04/06 04:00:41;;;;;;;0.00;0.00;;;;;;;6.67;64.02;98714.09;6268499;22;20024;-80
2022/04/06 04:17:42;;;;;;;0.00;0.00;;;;;;;8.16;62.02;98724.25;6249298;23;20031;-73
2022/04/06 04:20:09;;;;;;;0.00;0.00;;;;;;;8.49;61.04;98724.00;6242855;23;20012;-77
2022/04/06 04:22:34;;;;;;;0.00;0.00;;;;;;;8.85;60.02;98721.25;6242856;23;20007;-78
2022/04/06 04:25:00;;;;;;;0.00;0.00;;;;;;;9.20;58.88;98716.00;6216595;23;20004;-74
2022/04/06 04:27:25;;;;;;;0.00;0.00;;;;;;;9.56;58.02;98729.16;6243341;23;20005;-77
2022/04/06 04:29:50;;;;;;;0.00;0.00;;;;;;;9.98;57.08;98737.69;6216906;23;20430;-73
2022/04/06 04:32:16;;;;;;;0.00;0.00;;;;;;;10.34;55.79;98724.00;6242401;23;20038;-73
2022/04/06 04:34:42;;;;;;;0.00;0.00;;;;;;;10.75;54.30;98728.16;6243526;23;20000;-73
2022/04/06 04:37:08;;;;;;;0.00;0.00;;;;;;;11.21;53.12;98738.31;6243344;23;20008;-73
2022/04/06 04:39:34;;;;;;;0.00;0.00;;;;;;;11.64;52.61;98735.56;6243294;23;20410;-73
2022/04/06 04:41:59;;;;;;;0.10;0.10;;;;;;;12.07;51.14;98733.88;6242206;23;20004;-73
2022/04/06 04:44:24;;;;;;;0.32;0.28;;;;;;;12.51;50.64;98740.63;6242754;23;20011;-73
2022/04/06 04:46:50;;;;;;;0.00;0.00;;;;;;;12.89;48.67;98745.84;6242999;23;20389;-73
2022/04/06 04:49:15;;;;;;;0.00;0.00;;;;;;;13.23;47.72;98738.44;6243320;23;20091;-72
2022/04/06 04:51:41;;;;;;;0.00;0.00;;;;;;;13.64;46.34;98745.66;6242219;23;20382;-72
2022/04/06 04:54:06;;;;;;;0.08;0.08;;;;;;;14.01;46.10;98740.22;6241834;23;20460;-74
2022/04/06 04:56:33;;;;;;;0.00;0.00;;;;;;;14.44;45.18;98747.78;6242196;23;20057;-72
2022/04/06 04:58:59;;;;;;;0.00;0.00;;;;;;;14.83;43.95;98759.69;6243257;23;20031;-72
2022/04/06 05:01:25;;;;;;;0.80;0.52;;;;;;;15.24;42.77;98751.56;6243164;23;20004;-73
2022/04/06 05:03:51;;;;;;;0.00;0.00;;;;;;;15.52;41.86;98739.38;6243200;23;20008;-72
2022/04/06 05:06:17;;;;;;;0.00;0.00;;;;;;;15.92;41.41;98743.88;6242166;23;20040;-73
2022/04/06 05:08:42;;;;;;;0.00;0.00;;;;;;;16.27;40.68;98749.22;6243429;23;20445;-72
2022/04/06 05:11:08;;;;;;;0.00;0.00;;;;;;;16.60;40.00;98753.22;6243406;23;20000;-73
2022/04/06 05:13:33;;;;;;;0.00;0.00;;;;;;;16.83;38.64;98745.66;6242685;23;20008;-72
2022/04/06 05:15:59;;;;;;;0.00;0.00;;;;;;;17.07;39.07;98755.91;6225230;22;20007;-72
2022/04/06 05:18:26;;;;;;;0.00;0.00;;;;;;;17.25;38.26;98772.81;6273693;22;20004;-72
2022/04/06 05:20:53;;;;;;;0.00;0.00;;;;;;;17.44;38.16;98769.69;6273406;22;20057;-72
2022/04/06 05:23:18;;;;;;;0.10;0.10;;;;;;;17.58;37.45;98768.66;6273058;22;20007;-73
2022/04/06 05:25:44;;;;;;;0.10;0.10;;;;;;;17.68;37.42;98770.94;6246406;22;20007;-73
2022/04/06 05:28:09;;;;;;;0.10;0.10;;;;;;;17.78;36.90;98772.47;6273552;22;20049;-73
2022/04/06 05:30:37;;;;;;;0.10;0.10;;;;;;;17.80;37.21;98778.34;6272611;22;20035;-73
2022/04/06 05:33:03;;;;;;;0.00;0.00;;;;;;;17.85;37.48;98774.66;6273963;22;20057;-73
2022/04/06 05:35:28;;;;;;;0.00;0.00;;;;;;;17.91;37.17;98784.13;6273545;22;20518;-73
2022/04/06 05:37:57;;;;;;;0.00;0.00;;;;;;;17.88;37.00;98784.78;6273100;22;20000;-73
2022/04/06 05:40:23;;;;;;;0.10;0.10;;;;;;;17.87;37.50;98778.59;6272442;22;20085;-73
2022/04/06 05:42:49;;;;;;;0.00;0.00;;;;;;;17.99;37.47;98786.03;6273064;22;20010;-73
2022/04/06 05:45:15;;;;;;;0.00;0.00;;;;;;;17.97;36.83;98780.13;6273250;22;20352;-73
2022/04/06 05:47:42;;;;;;;0.10;0.10;;;;;;;18.04;37.30;98791.22;6273591;22;20459;-73
2022/04/06 05:50:08;;;;;;;0.10;0.10;;;;;;;18.15;37.40;98790.78;6273985;22;20558;-73
2022/04/06 05:52:34;;;;;;;0.55;0.30;;;;;;;18.24;37.15;98794.22;6272248;22;20361;-73
2022/04/06 05:55:01;;;;;;;0.00;0.00;;;;;;;18.35;37.20;98776.44;6273127;22;20015;-73
2022/04/06 05:57:26;;;;;;;0.10;0.10;;;;;;;18.42;36.60;98789.44;6272759;22;20422;-73
2022/04/06 05:59:51;;;;;;;0.30;0.30;;;;;;;18.44;36.46;98792.56;6273612;22;20069;-73
2022/04/06 06:02:19;;;;;;;0.10;0.10;;;;;;;18.49;37.07;98789.69;6273028;22;20117;-73
2022/04/06 06:04:44;;;;;;;0.00;0.00;;;;;;;18.49;36.80;98792.38;6275579;22;20385;-73
2022/04/06 06:07:11;;;;;;;0.10;0.10;;;;;;;18.61;37.26;98790.81;6274130;22;20046;-72
2022/04/06 06:09:37;;;;;;;0.00;0.00;;;;;;;18.72;37.10;98783.84;6274667;22;20511;-72
2022/04/06 06:12:03;;;;;;;0.00;0.00;;;;;;;18.78;37.37;98785.19;6274450;22;20400;-72
2022/04/06 06:14:29;;;;;;;0.10;0.10;;;;;;;18.91;37.21;98791.44;6273439;22;20035;-72
2022/04/06 06:16:55;;;;;;;0.70;0.55;;;;;;;18.89;36.63;98782.84;6274224;22;20437;-72
2022/04/06 06:19:21;;;;;;;0.10;0.10;;;;;;;18.82;37.48;98791.53;6274542;22;20129;-72
2022/04/06 06:21:46;;;;;;;0.05;0.05;;;;;;;18.84;37.75;98788.47;6274434;22;20004;-72
2022/04/06 06:24:12;;;;;;;0.10;0.10;;;;;;;18.81;37.77;98787.25;6274744;22;20003;-72
2022/04/06 06:26:39;;;;;;;0.10;0.10;;;;;;;18.80;37.23;98779.47;6274277;22;20008;-72
2022/04/06 06:29:04;;;;;;;0.00;0.00;;;;;;;18.81;37.45;98786.44;6274800;22;20036;-72
2022/04/06 06:31:31;;;;;;;0.00;0.00;;;;;;;18.79;37.20;98786.00;6274445;22;20015;-72
2022/04/06 06:33:58;;;;;;;0.10;0.10;;;;;;;18.54;37.26;98786.75;6274664;22;20126;-72
2022/04/06 06:36:23;;;;;;;0.10;0.10;;;;;;;18.26;37.01;98791.97;6274304;22;20085;-72
2022/04/06 06:38:50;;;;;;;0.10;0.10;;;;;;;17.95;37.99;98800.53;6274681;22;20399;-73
2022/04/06 06:41:15;;;;;;;0.10;0.10;;;;;;;17.59;38.23;98803.47;6274487;22;20079;-72
2022/04/06 06:43:41;;;;;;;0.10;0.10;;;;;;;17.39;38.67;98801.53;6274347;22;20087;-72
2022/04/06 06:46:06;;;;;;;0.13;0.13;;;;;;;17.02;38.42;98802.03;6274508;22;20010;-73
2022/04/06 06:48:32;;;;;;;0.03;0.03;;;;;;;16.77;38.98;98803.69;6274337;22;20054;-72
2022/04/06 06:50:57;;;;;;;1.30;1.30;;;;;;;16.52;39.42;98805.34;6247443;22;20113;-72
2022/04/06 06:53:22;;;;;;;0.20;0.20;;;;;;;16.39;40.24;98801.72;6274105;22;20074;-74
2022/04/06 06:55:48;;;;;;;0.20;0.20;;;;;;;16.31;39.88;98803.34;6274542;22;20003;-73
2022/04/06 06:58:13;;;;;;;0.40;0.40;;;;;;;16.24;39.60;98803.81;6273938;22;20390;-73
2022/04/06 07:00:39;;;;;;;0.00;0.00;;;;;;;16.31;39.85;98816.81;6246951;22;20008;-74
2022/04/06 07:03:04;;;;;;;0.10;0.10;;;;;;;16.42;40.58;98820.00;6274942;22;20010;-74
2022/04/06 07:05:30;;;;;;;0.10;0.10;;;;;;;16.61;39.51;98825.81;6275032;22;20003;-71
2022/04/06 07:07:57;;;;;;;0.30;0.30;;;;;;;16.67;38.22;98821.03;6274943;22;20358;-72
2022/04/06 07:10:25;;;;;;;0.00;0.00;;;;;;;16.75;36.90;98832.94;6274920;22;20083;-74
2022/04/06 07:12:52;;;;;;;0.08;0.08;;;;;;;16.66;35.32;98832.94;6275135;22;20008;-74
2022/04/06 07:15:18;;;;;;;0.10;0.10;;;;;;;16.64;36.93;98827.84;6274843;22;20006;-75
2022/04/06 07:17:43;;;;;;;0.20;0.20;;;;;;;16.68;35.80;98830.72;6274843;22;20008;-74
2022/04/06 07:20:10;;;;;;;0.00;0.00;;;;;;;16.72;36.89;98823.56;6274755;22;20010;-74
2022/04/06 07:22:35;;;;;;;0.05;0.05;;;;;;;16.86;36.54;98823.34;6247170;22;20400;-74
2022/04/06 07:25:01;;;;;;;0.10;0.10;;;;;;;16.99;37.85;98829.72;6274951;22;20000;-74
2022/04/06 07:27:34;;;;;;;0.10;0.10;;;;;;;17.14;37.98;98836.47;6274761;22;20388;-74
2022/04/06 07:29:59;;;;;;;0.05;0.05;;;;;;;17.32;36.38;98844.50;6275009;22;20086;-73
2022/04/06 07:32:24;;;;;;;0.20;0.20;;;;;;;17.44;36.00;98844.56;6274555;22;20082;-75
2022/04/06 07:34:50;;;;;;;0.25;0.25;;;;;;;17.49;34.78;98836.31;6275045;22;20035;-75
2022/04/06 07:37:15;;;;;;;0.05;0.05;;;;;;;17.55;35.88;98845.00;6274971;22;20433;-74
2022/04/06 07:39:41;;;;;;;0.15;0.15;;;;;;;17.57;36.13;98831.94;6274671;22;20011;-73
2022/04/06 07:42:06;;;;;;;0.00;0.00;;;;;;;17.72;35.45;98844.09;6274814;22;20004;-73
2022/04/06 07:44:31;;;;;;;0.00;0.00;;;;;;;17.69;34.87;98842.06;6274090;22;20000;-73
2022/04/06 07:46:57;;;;;;;0.10;0.10;;;;;;;17.67;36.01;98849.69;6274416;22;20029;-73
2022/04/06 07:49:22;;;;;;;0.10;0.10;;;;;;;17.67;35.75;98847.00;6274527;22;20000;-73
2022/04/06 07:51:48;;;;;;;0.20;0.20;;;;;;;17.66;36.19;98842.72;6274364;22;20014;-73
2022/04/06 07:54:13;;;;;;;0.10;0.10;;;;;;;17.64;36.13;98845.75;6274859;22;20042;-73
2022/04/06 07:56:40;;;;;;;0.35;0.35;;;;;;;17.62;35.43;98837.16;6273876;22;20437;-73
2022/04/06 07:59:06;;;;;;;0.10;0.10;;;;;;;17.66;35.74;98842.72;6274551;22;20000;-73
2022/04/06 08:01:31;;;;;;;0.00;0.00;;;;;;;17.68;35.31;98848.59;6273980;22;20039;-72
2022/04/06 08:03:57;;;;;;;0.10;0.10;;;;;;;17.65;35.52;98841.13;6274174;22;20004;-72
2022/04/06 08:06:25;;;;;;;2.08;0.65;;;;;;;17.68;36.78;98843.97;6274275;22;19999;-72
2022/04/06 08:08:53;;;;;;;0.10;0.10;;;;;;;17.73;36.74;98834.88;6274627;22;20338;-73
2022/04/06 08:11:19;;;;;;;0.00;0.00;;;;;;;17.76;36.67;98847.75;6274520;22;20008;-74
2022/04/06 08:13:44;;;;;;;0.10;0.10;;;;;;;17.66;36.15;98835.38;6274096;22;20000;-73
2022/04/06 08:16:10;;;;;;;0.10;0.10;;;;;;;17.58;35.41;98847.84;6274518;22;20019;-74
2022/04/06 08:18:36;;;;;;;0.10;0.10;;;;;;;17.46;35.77;98847.75;6274335;22;20035;-74
2022/04/06 08:21:02;;;;;;;0.25;0.25;;;;;;;17.35;35.91;98835.75;6274515;22;20082;-75
2022/04/06 08:23:27;;;;;;;0.10;0.10;;;;;;;17.26;36.17;98846.59;6274070;22;20090;-74
2022/04/06 08:25:53;;;;;;;0.28;0.28;;;;;;;17.17;36.13;98845.84;6273712;22;20349;-74
2022/04/06 08:28:19;;;;;;;0.00;0.00;;;;;;;17.07;36.68;98836.97;6274455;22;20004;-74
2022/04/06 08:30:47;;;;;;;0.43;0.43;;;;;;;17.05;37.55;98836.50;6246736;22;20020;-74
2022/04/06 08:33:13;;;;;;;0.10;0.10;;;;;;;17.07;37.96;98838.88;6274375;22;20034;-73
2022/04/06 08:35:40;;;;;;;0.20;0.20;;;;;;;17.07;37.60;98836.19;6274582;22;20078;-74
2022/04/06 08:38:15;;;;;;;0.40;0.40;;;;;;;17.10;37.46;98830.13;6274317;22;20342;-75
2022/04/06 08:40:42;;;;;;;0.32;0.32;;;;;;;17.17;38.17;98821.50;6273915;22;20087;-75
2022/04/06 08:43:09;;;;;;;0.00;0.00;;;;;;;17.32;37.21;98830.97;6274055;22;20011;-74
2022/04/06 08:45:39;;;;;;;0.17;0.17;;;;;;;17.48;36.96;98828.50;6274003;22;20463;-74
2022/04/06 08:48:10;;;;;;;0.13;0.13;;;;;;;17.59;36.01;98833.22;6274272;22;20004;-75
2022/04/06 08:50:37;;;;;;;0.10;0.10;;;;;;;17.67;36.53;98830.78;6273928;22;20078;-75
2022/04/06 08:53:05;;;;;;;0.10;0.10;;;;;;;17.71;35.85;98828.97;6274118;22;20003;-75
2022/04/06 08:55:32;;;;;;;0.10;0.10;;;;;;;17.77;35.96;98833.06;6273501;22;20012;-75
2022/04/06 08:57:59;;;;;;;0.10;0.10;;;;;;;17.78;36.04;98818.44;6273864;22;20086;-74
2022/04/06 09:00:26;;;;;;;0.10;0.10;;;;;;;17.85;36.69;98826.81;6274133;22;20006;-75
2022/04/06 09:02:51;;;;;;;0.75;0.75;;;;;;;17.94;36.77;98815.94;6273650;22;20494;-75
2022/04/06 09:05:20;;;;;;;0.10;0.10;;;;;;;18.08;36.05;98816.47;6274026;22;20082;-74
2022/04/06 09:07:46;;;;;;;0.10;0.10;;;;;;;18.15;36.08;98817.84;6273715;22;20014;-75
2022/04/06 09:10:14;;;;;;;0.63;0.63;;;;;;;18.17;35.58;98799.38;6274387;22;20022;-75
2022/04/06 09:12:39;;;;;;;0.10;0.10;;;;;;;18.24;35.73;98800.41;6273749;22;20038;-73
2022/04/06 09:15:08;;;;;;;0.10;0.10;;;;;;;18.28;35.25;98797.84;6270874;22;19999;-74
2022/04/06 09:17:48;;;;;;;0.03;0.03;;;;;;;18.33;35.72;98803.03;6273580;22;20061;-75
2022/04/06 09:20:15;;;;;;;0.10;0.10;;;;;;;18.29;34.89;98790.53;6273935;22;20039;-74
2022/04/06 09:22:41;;;;;;;0.43;0.43;;;;;;;18.38;35.17;98793.91;6273470;22;20081;-74
2022/04/06 09:25:07;;;;;;;0.40;0.40;;;;;;;18.38;34.13;98781.19;6273554;22;20007;-75
2022/04/06 09:27:33;;;;;;;0.10;0.10;;;;;;;18.48;34.67;98777.25;6273476;22;20016;-74
2022/04/06 09:30:03;;;;;;;0.17;0.17;;;;;;;18.59;33.04;98774.09;6273743;22;20317;-74
2022/04/06 09:32:28;;;;;;;0.10;0.10;;;;;;;18.70;33.64;98775.25;6272704;22;20012;-77
2022/04/06 09:34:54;;;;;;;0.00;0.00;;;;;;;18.83;33.11;98767.94;6273291;22;20011;-77
2022/04/06 09:37:22;;;;;;;0.10;0.10;;;;;;;18.92;31.95;98771.38;6245156;22;20011;-79
2022/04/06 09:39:48;;;;;;;0.00;0.00;;;;;;;18.99;30.87;98766.16;6272625;22;20031;-79
2022/04/06 09:42:34;;;;;;;0.55;0.55;;;;;;;19.12;29.90;98771.59;6271860;22;20345;-78
2022/04/06 09:47:58;;;;;;;0.10;0.10;;;;;;;19.27;29.28;98767.38;6272950;22;20031;-79
2022/04/06 09:50:28;;;;;;;0.45;0.45;;;;;;;19.34;28.98;98762.97;6273041;22;20341;-77
2022/04/06 09:52:57;;;;;;;0.00;0.00;;;;;;;19.44;28.55;98763.63;6272256;22;20441;-76
2022/04/06 09:55:24;;;;;;;0.10;0.10;;;;;;;19.46;28.07;98767.56;6272980;22;20007;-77
2022/04/06 09:57:51;;;;;;;0.00;0.00;;;;;;;19.53;28.66;98767.00;6273344;22;20430;-79
2022/04/06 10:00:22;;;;;;;0.00;0.00;;;;;;;19.59;28.60;98754.78;6273596;22;20425;-77
2022/04/06 10:02:54;;;;;;;0.80;0.73;;;;;;;19.61;28.66;98749.00;6273299;22;20038;-78
2022/04/06 10:05:21;;;;;;;0.98;0.55;;;;;;;19.67;28.71;98753.06;6273232;22;20054;-78
2022/04/06 10:07:48;;;;;;;0.10;0.10;;;;;;;19.70;27.56;98748.88;6273318;22;20007;-78
2022/04/06 10:10:14;;;;;;;0.10;0.10;;;;;;;19.76;28.00;98740.16;6246410;22;20078;-78
2022/04/06 10:12:40;;;;;;;0.10;0.10;;;;;;;19.76;28.27;98737.44;6273206;22;20028;-77
2022/04/06 10:15:05;;;;;;;0.10;0.10;;;;;;;19.79;28.59;98738.69;6246408;22;20008;-79
2022/04/06 10:17:31;;;;;;;0.00;0.00;;;;;;;19.80;29.17;98732.13;6273523;22;20011;-79
2022/04/06 10:20:23;;;;;;;0.10;0.10;;;;;;;19.84;27.93;98741.16;6246284;22;20483;-78
2022/04/06 10:23:17;;;;;;;0.00;0.00;;;;;;;19.80;27.67;98743.75;6246025;22;20528;-78
2022/04/06 10:25:59;;;;;;;0.10;0.10;;;;;;;19.77;27.65;98732.78;6273262;22;20003;-78
2022/04/06 10:28:24;;;;;;;0.15;0.15;;;;;;;19.69;27.86;98731.81;6273551;22;20012;-78
2022/04/06 10:31:26;;;;;;;0.10;0.10;;;;;;;19.68;27.82;98728.28;6245724;22;20505;-78
2022/04/06 10:34:17;;;;;;;0.10;0.10;;;;;;;19.72;27.75;98722.19;6245975;22;20014;-79
2022/04/06 10:36:44;;;;;;;0.10;0.10;;;;;;;19.66;27.60;98719.72;6246075;22;20011;-79
2022/04/06 10:39:10;;;;;;;0.03;0.03;;;;;;;19.69;26.94;98723.69;6246307;22;20004;-79
2022/04/06 10:41:59;;;;;;;0.10;0.10;;;;;;;19.68;27.12;98722.09;6246230;22;20065;-78
2022/04/06 10:44:51;;;;;;;0.00;0.00;;;;;;;19.72;26.83;98714.84;6272717;22;19999;-78
2022/04/06 10:47:17;;;;;;;0.10;0.10;;;;;;;19.67;25.65;98724.00;6241864;22;20094;-78
2022/04/06 10:50:08;;;;;;;0.00;0.00;;;;;;;19.62;25.39;98724.25;6247584;22;20039;-79
2022/04/06 10:52:33;;;;;;;0.10;0.10;;;;;;;19.65;25.98;98715.44;6247652;22;20019;-79
2022/04/06 10:55:08;;;;;;;0.10;0.10;;;;;;;19.70;26.55;98713.59;6248093;22;20062;-78
2022/04/06 10:57:55;;;;;;;0.10;0.10;;;;;;;19.73;24.69;98710.22;6274740;22;20008;-78
2022/04/06 11:00:21;;;;;;;0.05;0.05;;;;;;;19.73;25.10;98702.06;6274898;22;20000;-79
2022/04/06 11:02:50;;;;;;;0.00;0.00;;;;;;;19.81;25.50;98706.53;6247554;22;20000;-78
2022/04/06 11:05:47;;;;;;;0.03;0.03;;;;;;;19.89;25.04;98700.22;6247934;22;20008;-79
2022/04/06 11:11:42;;;;;;;0.10;0.10;;;;;;;20.03;24.46;98691.66;6273641;22;20022;-77
2022/04/06 11:14:09;;;;;;;0.10;0.10;;;;;;;20.09;24.87;98692.19;6274928;22;20004;-78
2022/04/06 11:17:01;;;;;;;0.00;0.00;;;;;;;20.22;25.29;98684.78;6274952;22;20015;-78
2022/04/06 11:19:28;;;;;;;0.10;0.10;;;;;;;20.27;25.37;98682.56;6241353;22;20090;-78
2022/04/06 11:21:55;;;;;;;0.10;0.10;;;;;;;20.31;25.56;98679.94;6247461;22;20007;-78
2022/04/06 11:24:27;;;;;;;0.30;0.30;;;;;;;20.42;25.90;98677.50;6247558;22;20490;-78
2022/04/06 11:26:53;;;;;;;0.10;0.10;;;;;;;20.50;25.74;98673.81;6247548;22;20011;-79
2022/04/06 11:29:25;;;;;;;0.20;0.20;;;;;;;20.58;25.98;98680.19;6247249;22;20007;-78
2022/04/06 11:31:59;;;;;;;0.22;0.22;;;;;;;20.63;25.31;98677.22;6247158;22;20090;-79
2022/04/06 11:34:36;;;;;;;0.00;0.00;;;;;;;20.67;25.28;98672.66;6274587;22;20011;-79
2022/04/06 11:37:03;;;;;;;0.00;0.00;;;;;;;20.63;25.03;98669.84;6247321;22;20037;-78
2022/04/06 11:39:30;;;;;;;0.00;0.00;;;;;;;20.59;24.85;98665.47;6247556;22;20003;-79
2022/04/06 11:41:56;;;;;;;0.30;0.30;;;;;;;20.67;25.32;98661.78;6274407;22;20003;-79
2022/04/06 11:44:24;;;;;;;0.10;0.10;;;;;;;20.69;24.91;98664.16;6247606;22;20092;-79
2022/04/06 11:46:50;;;;;;;0.05;0.05;;;;;;;20.68;24.49;98647.06;6273970;22;20456;-79
2022/04/06 11:49:20;;;;;;;0.00;0.00;;;;;;;20.71;24.21;98667.31;6247690;22;20086;-79
2022/04/06 11:51:46;;;;;;;0.10;0.10;;;;;;;20.70;25.18;98657.56;6247487;22;20369;-79
2022/04/06 11:54:12;;;;;;;0.00;0.00;;;;;;;20.76;25.17;98653.47;6247496;22;20065;-80
2022/04/06 11:56:37;;;;;;;0.00;0.00;;;;;;;20.79;25.55;98644.63;6247328;22;20525;-80
2022/04/06 11:59:03;;;;;;;0.00;0.00;;;;;;;20.87;25.60;98643.66;6247170;22;20083;-80
2022/04/06 12:01:40;;;;;;;0.00;0.00;;;;;;;20.89;25.45;98644.06;6246741;22;20014;-80
2022/04/06 12:04:12;;;;;;;0.00;0.00;;;;;;;20.87;25.18;98640.94;6246721;22;20008;-79
2022/04/06 12:06:38;;;;;;;0.22;0.22;;;;;;;20.85;24.72;98645.94;6273559;22;20233;-79
2022/04/06 12:09:03;;;;;;;0.10;0.10;;;;;;;20.85;25.06;98640.50;6246375;22;20110;-79
2022/04/06 12:11:29;;;;;;;0.00;0.00;;;;;;;20.87;25.26;98638.22;6273179;22;20094;-79
2022/04/06 12:13:56;;;;;;;0.00;0.00;;;;;;;20.82;25.01;98652.06;6246170;22;20004;-79
2022/04/06 12:16:23;;;;;;;0.00;0.00;;;;;;;20.83;24.88;98640.06;6246090;22;20047;-79
2022/04/06 12:18:51;;;;;;;0.05;0.05;;;;;;;20.86;25.03;98628.47;6246294;22;20389;-77
2022/04/06 12:21:27;;;;;;;0.00;0.00;;;;;;;20.85;24.83;98623.38;6273325;22;19999;-78
2022/04/06 12:23:54;;;;;;;0.00;0.00;;;;;;;20.80;24.92;98621.75;6246174;22;20425;-77
2022/04/06 12:26:24;;;;;;;0.10;0.10;;;;;;;20.79;24.61;98622.88;6273396;22;20149;-78
2022/04/06 12:28:56;;;;;;;0.00;0.00;;;;;;;20.78;24.66;98618.59;6246037;22;20084;-77
2022/04/06 12:31:33;;;;;;;0.03;0.03;;;;;;;20.77;23.56;98617.00;6272512;22;20003;-78
2022/04/06 12:33:58;;;;;;;0.00;0.00;;;;;;;20.69;23.40;98620.69;6246132;22;20364;-78
2022/04/06 12:36:30;;;;;;;0.00;0.00;;;;;;;20.70;23.46;98612.19;6270817;22;20004;-78
2022/04/06 12:38:57;;;;;;;0.10;0.10;;;;;;;20.70;23.40;98601.31;6271816;22;20030;-79
2022/04/06 12:41:23;;;;;;;0.00;0.00;;;;;;;20.68;23.58;98600.06;6245823;22;20012;-80
2022/04/06 12:43:49;;;;;;;0.10;0.10;;;;;;;20.67;23.67;98601.25;6245890;22;20345;-78
2022/04/06 12:46:44;;;;;;;0.10;0.10;;;;;;;20.67;23.81;98591.16;6273197;22;20004;-73
2022/04/06 12:49:22;;;;;;;0.10;0.10;;;;;;;20.75;23.63;98598.34;6272141;22;20022;-77
2022/04/06 12:52:02;;;;;;;0.00;0.00;;;;;;;20.75;24.15;98594.84;6273274;22;20018;-75
2022/04/06 12:54:31;;;;;;;0.00;0.00;;;;;;;20.79;24.21;98591.06;6272359;22;20019;-75
2022/04/06 12:57:06;;;;;;;0.00;0.00;;;;;;;20.89;23.77;98603.28;6245695;22;20026;-75
2022/04/06 12:59:42;;;;;;;0.00;0.00;;;;;;;20.88;23.73;98585.41;6273102;22;20000;-75
2022/04/06 13:02:26;;;;;;;0.00;0.00;;;;;;;20.96;23.99;98575.50;6272651;22;20472;-75
2022/04/06 13:04:54;;;;;;;0.10;0.10;;;;;;;21.03;23.89;98577.56;6271994;22;20318;-77
2022/04/06 13:07:20;;;;;;;0.00;0.00;;;;;;;21.07;23.80;98570.28;6272958;22;20008;-75
2022/04/06 13:09:54;;;;;;;0.00;0.00;;;;;;;21.15;24.05;98568.47;6273089;22;20338;-77
2022/04/06 13:12:21;;;;;;;0.20;0.20;;;;;;;21.17;24.04;98566.19;6273041;22;20475;-79
2022/04/06 13:14:47;;;;;;;0.00;0.00;;;;;;;21.22;24.22;98555.78;6246060;22;20011;-78
2022/04/06 13:17:13;;;;;;;0.10;0.10;;;;;;;21.26;24.07;98550.44;6246590;22;20024;-78
2022/04/06 13:19:38;;;;;;;0.00;0.00;;;;;;;21.27;23.79;98560.94;6273864;22;20003;-78
2022/04/06 13:22:05;;;;;;;0.00;0.00;;;;;;;21.23;23.56;98557.38;6245729;22;20006;-78
2022/04/06 13:24:34;;;;;;;0.10;0.10;;;;;;;21.25;23.46;98552.38;6246480;22;20019;-79
2022/04/06 13:27:01;;;;;;;0.10;0.10;;;;;;;21.20;23.97;98541.78;6273514;22;20429;-78
2022/04/06 13:29:27;;;;;;;0.10;0.10;;;;;;;21.26;23.54;98542.28;6273487;22;19999;-78
2022/04/06 13:31:53;;;;;;;0.00;0.00;;;;;;;21.32;23.69;98540.06;6245986;22;20083;-78